sensor_id;sensor_type;location;lat;lon;timestamp;P1;durP1;ratioP1;P2;durP2;ratioP2
31382;SDS011;18014;49.228;11.102;2022-12-11T00:01:34;28.35;;;18.20;;
31382;SDS011;18014;49.228;11.102;2022-12-11T00:03:35;30.38;;;17.90;;
31382;SDS011;18014;49.228;11.102;2022-12-11T00:05:37;30.70;;;19.40;;
31382;SDS011;18014;49.228;11.102;2022-12-11T00:07:39;27.63;;;18.77;;
31382;SDS011;18014;49.228;11.102;2022-12-11T00:09:40;27.95;;;18.23;;
31382;SDS011;18014;49.228;11.102;2022-12-11T00:11:41;27.35;;;16.20;;
31382;SDS011;18014;49.228;11.102;2022-12-11T00:13:42;28.38;;;18.17;;
31382;SDS011;18014;49.228;11.102;2022-12-11T00:15:44;27.75;;;18.63;;
31382;SDS011;18014;49.228;11.102;2022-12-11T00:17:45;26.38;;;17.77;;
31382;SDS011;18014;49.228;11.102;2022-12-11T00:19:45;26.95;;;17.27;;
31382;SDS011;18014;49.228;11.102;2022-12-11T00:21:46;28.00;;;19.13;;
31382;SDS011;18014;49.228;11.102;2022-12-11T00:23:47;31.30;;;18.27;;
31382;SDS011;18014;49.228;11.102;2022-12-11T00:25:48;25.88;;;17.30;;
31382;SDS011;18014;49.228;11.102;2022-12-11T00:27:49;25.85;;;17.13;;
31382;SDS011;18014;49.228;11.102;2022-12-11T00:29:50;26.42;;;18.25;;
31382;SDS011;18014;49.228;11.102;2022-12-11T00:31:51;25.58;;;16.85;;
31382;SDS011;18014;49.228;11.102;2022-12-11T00:33:52;23.85;;;16.55;;
31382;SDS011;18014;49.228;11.102;2022-12-11T00:35:53;25.35;;;17.00;;
31382;SDS011;18014;49.228;11.102;2022-12-11T00:37:54;25.30;;;17.00;;
31382;SDS011;18014;49.228;11.102;2022-12-11T00:39:55;25.08;;;17.20;;
31382;SDS011;18014;49.228;11.102;2022-12-11T00:41:56;25.70;;;17.25;;
31382;SDS011;18014;49.228;11.102;2022-12-11T00:43:57;25.10;;;16.95;;
31382;SDS011;18014;49.228;11.102;2022-12-11T00:45:58;24.55;;;16.73;;
31382;SDS011;18014;49.228;11.102;2022-12-11T00:47:59;26.15;;;17.35;;
31382;SDS011;18014;49.228;11.102;2022-12-11T00:50:00;26.90;;;16.98;;
31382;SDS011;18014;49.228;11.102;2022-12-11T00:52:02;24.90;;;16.58;;
31382;SDS011;18014;49.228;11.102;2022-12-11T00:54:03;24.73;;;16.35;;
31382;SDS011;18014;49.228;11.102;2022-12-11T00:56:09;23.40;;;17.08;;
31382;SDS011;18014;49.228;11.102;2022-12-11T00:58:12;24.52;;;17.45;;
31382;SDS011;18014;49.228;11.102;2022-12-11T01:00:13;24.42;;;17.02;;
31382;SDS011;18014;49.228;11.102;2022-12-11T01:02:14;22.88;;;16.77;;
31382;SDS011;18014;49.228;11.102;2022-12-11T01:04:15;24.05;;;16.95;;
31382;SDS011;18014;49.228;11.102;2022-12-11T01:06:18;23.42;;;16.35;;
31382;SDS011;18014;49.228;11.102;2022-12-11T01:08:21;23.55;;;15.65;;
31382;SDS011;18014;49.228;11.102;2022-12-11T01:10:22;25.90;;;17.77;;
31382;SDS011;18014;49.228;11.102;2022-12-11T01:12:23;24.42;;;16.58;;
31382;SDS011;18014;49.228;11.102;2022-12-11T01:14:25;23.20;;;16.10;;
31382;SDS011;18014;49.228;11.102;2022-12-11T01:16:26;25.48;;;17.33;;
31382;SDS011;18014;49.228;11.102;2022-12-11T01:18:27;27.13;;;18.00;;
31382;SDS011;18014;49.228;11.102;2022-12-11T01:20:28;23.63;;;16.20;;
31382;SDS011;18014;49.228;11.102;2022-12-11T01:22:29;24.33;;;16.45;;
31382;SDS011;18014;49.228;11.102;2022-12-11T01:24:30;23.73;;;17.02;;
31382;SDS011;18014;49.228;11.102;2022-12-11T01:26:32;24.45;;;16.73;;
31382;SDS011;18014;49.228;11.102;2022-12-11T01:28:33;24.23;;;17.00;;
31382;SDS011;18014;49.228;11.102;2022-12-11T01:30:34;27.27;;;17.35;;
31382;SDS011;18014;49.228;11.102;2022-12-11T01:32:35;24.75;;;17.10;;
31382;SDS011;18014;49.228;11.102;2022-12-11T01:34:36;26.02;;;17.80;;
31382;SDS011;18014;49.228;11.102;2022-12-11T01:36:37;26.50;;;18.05;;
31382;SDS011;18014;49.228;11.102;2022-12-11T01:38:39;26.88;;;18.13;;
31382;SDS011;18014;49.228;11.102;2022-12-11T01:40:44;26.25;;;18.58;;
31382;SDS011;18014;49.228;11.102;2022-12-11T01:42:46;25.17;;;18.05;;
31382;SDS011;18014;49.228;11.102;2022-12-11T01:46:48;29.98;;;20.15;;
31382;SDS011;18014;49.228;11.102;2022-12-11T01:48:49;27.70;;;19.95;;
31382;SDS011;18014;49.228;11.102;2022-12-11T01:50:52;29.63;;;19.48;;
31382;SDS011;18014;49.228;11.102;2022-12-11T01:52:58;29.92;;;19.33;;
31382;SDS011;18014;49.228;11.102;2022-12-11T01:55:00;28.00;;;19.33;;
31382;SDS011;18014;49.228;11.102;2022-12-11T01:57:02;27.48;;;18.65;;
31382;SDS011;18014;49.228;11.102;2022-12-11T01:59:05;32.90;;;21.58;;
31382;SDS011;18014;49.228;11.102;2022-12-11T02:05:18;26.15;;;17.80;;
31382;SDS011;18014;49.228;11.102;2022-12-11T02:07:19;31.13;;;20.17;;
31382;SDS011;18014;49.228;11.102;2022-12-11T02:09:22;31.85;;;20.23;;
31382;SDS011;18014;49.228;11.102;2022-12-11T02:14:10;28.90;;;20.13;;
31382;SDS011;18014;49.228;11.102;2022-12-11T02:16:34;31.52;;;20.80;;
31382;SDS011;18014;49.228;11.102;2022-12-11T02:18:59;32.15;;;21.15;;
31382;SDS011;18014;49.228;11.102;2022-12-11T02:21:27;30.70;;;19.73;;
31382;SDS011;18014;49.228;11.102;2022-12-11T02:23:45;30.92;;;19.42;;
31382;SDS011;18014;49.228;11.102;2022-12-11T02:28:24;29.75;;;19.80;;
31382;SDS011;18014;49.228;11.102;2022-12-11T02:30:33;28.98;;;19.52;;
31382;SDS011;18014;49.228;11.102;2022-12-11T02:32:37;28.00;;;18.98;;
31382;SDS011;18014;49.228;11.102;2022-12-11T02:34:49;30.70;;;19.77;;
31382;SDS011;18014;49.228;11.102;2022-12-11T02:36:59;28.85;;;19.45;;
31382;SDS011;18014;49.228;11.102;2022-12-11T02:39:04;30.27;;;19.52;;
31382;SDS011;18014;49.228;11.102;2022-12-11T02:41:09;27.85;;;19.25;;
31382;SDS011;18014;49.228;11.102;2022-12-11T02:43:12;30.27;;;19.35;;
31382;SDS011;18014;49.228;11.102;2022-12-11T02:45:15;26.38;;;17.95;;
31382;SDS011;18014;49.228;11.102;2022-12-11T02:47:18;32.83;;;20.48;;
31382;SDS011;18014;49.228;11.102;2022-12-11T02:49:20;30.40;;;19.93;;
31382;SDS011;18014;49.228;11.102;2022-12-11T02:51:23;27.42;;;18.85;;
31382;SDS011;18014;49.228;11.102;2022-12-11T02:53:30;27.63;;;18.83;;
31382;SDS011;18014;49.228;11.102;2022-12-11T02:55:35;27.75;;;18.67;;
31382;SDS011;18014;49.228;11.102;2022-12-11T03:02:04;28.02;;;18.52;;
31382;SDS011;18014;49.228;11.102;2022-12-11T03:04:05;27.50;;;18.42;;
31382;SDS011;18014;49.228;11.102;2022-12-11T03:06:06;26.52;;;18.63;;
31382;SDS011;18014;49.228;11.102;2022-12-11T03:08:11;28.10;;;18.65;;
31382;SDS011;18014;49.228;11.102;2022-12-11T03:10:16;25.48;;;17.83;;
31382;SDS011;18014;49.228;11.102;2022-12-11T03:12:38;27.25;;;19.33;;
31382;SDS011;18014;49.228;11.102;2022-12-11T03:14:41;26.08;;;17.98;;
31382;SDS011;18014;49.228;11.102;2022-12-11T03:19:05;27.00;;;18.25;;
31382;SDS011;18014;49.228;11.102;2022-12-11T03:21:26;30.70;;;20.48;;
31382;SDS011;18014;49.228;11.102;2022-12-11T03:23:32;25.95;;;18.00;;
31382;SDS011;18014;49.228;11.102;2022-12-11T03:30:04;27.58;;;18.60;;
31382;SDS011;18014;49.228;11.102;2022-12-11T03:32:15;28.55;;;19.98;;
31382;SDS011;18014;49.228;11.102;2022-12-11T03:34:24;29.75;;;19.95;;
31382;SDS011;18014;49.228;11.102;2022-12-11T03:36:33;28.27;;;19.70;;
31382;SDS011;18014;49.228;11.102;2022-12-11T03:38:40;28.25;;;19.30;;
31382;SDS011;18014;49.228;11.102;2022-12-11T03:40:49;26.35;;;18.63;;
31382;SDS011;18014;49.228;11.102;2022-12-11T03:42:53;29.92;;;20.48;;
31382;SDS011;18014;49.228;11.102;2022-12-11T03:44:56;31.05;;;19.73;;
31382;SDS011;18014;49.228;11.102;2022-12-11T03:46:59;29.20;;;19.77;;
31382;SDS011;18014;49.228;11.102;2022-12-11T03:49:06;29.23;;;19.63;;
31382;SDS011;18014;49.228;11.102;2022-12-11T03:51:16;30.85;;;20.50;;
31382;SDS011;18014;49.228;11.102;2022-12-11T03:53:18;30.67;;;20.43;;
31382;SDS011;18014;49.228;11.102;2022-12-11T03:55:20;30.67;;;20.63;;
31382;SDS011;18014;49.228;11.102;2022-12-11T03:57:24;31.25;;;19.38;;
31382;SDS011;18014;49.228;11.102;2022-12-11T03:59:28;31.90;;;20.48;;
31382;SDS011;18014;49.228;11.102;2022-12-11T04:01:29;31.30;;;19.58;;
31382;SDS011;18014;49.228;11.102;2022-12-11T04:03:30;28.27;;;18.77;;
31382;SDS011;18014;49.228;11.102;2022-12-11T04:05:31;27.95;;;18.05;;
31382;SDS011;18014;49.228;11.102;2022-12-11T04:07:32;31.52;;;18.17;;
31382;SDS011;18014;49.228;11.102;2022-12-11T04:09:34;29.75;;;19.63;;
31382;SDS011;18014;49.228;11.102;2022-12-11T04:11:35;29.30;;;19.65;;
31382;SDS011;18014;49.228;11.102;2022-12-11T04:13:36;29.58;;;19.55;;
31382;SDS011;18014;49.228;11.102;2022-12-11T04:15:38;27.80;;;18.88;;
31382;SDS011;18014;49.228;11.102;2022-12-11T04:17:39;28.77;;;18.98;;
31382;SDS011;18014;49.228;11.102;2022-12-11T04:19:59;28.05;;;19.13;;
31382;SDS011;18014;49.228;11.102;2022-12-11T04:22:19;26.58;;;17.92;;
31382;SDS011;18014;49.228;11.102;2022-12-11T04:24:38;28.05;;;18.38;;
31382;SDS011;18014;49.228;11.102;2022-12-11T04:26:39;29.63;;;18.80;;
31382;SDS011;18014;49.228;11.102;2022-12-11T04:28:42;28.58;;;17.98;;
31382;SDS011;18014;49.228;11.102;2022-12-11T04:30:48;31.50;;;19.40;;
31382;SDS011;18014;49.228;11.102;2022-12-11T04:32:49;28.08;;;18.40;;
31382;SDS011;18014;49.228;11.102;2022-12-11T04:34:51;27.00;;;18.77;;
31382;SDS011;18014;49.228;11.102;2022-12-11T04:36:52;28.02;;;18.45;;
31382;SDS011;18014;49.228;11.102;2022-12-11T04:38:53;30.27;;;19.73;;
31382;SDS011;18014;49.228;11.102;2022-12-11T04:41:01;29.63;;;19.55;;
31382;SDS011;18014;49.228;11.102;2022-12-11T04:43:04;29.55;;;19.13;;
31382;SDS011;18014;49.228;11.102;2022-12-11T04:45:05;28.65;;;19.02;;
31382;SDS011;18014;49.228;11.102;2022-12-11T04:47:08;34.10;;;20.83;;
31382;SDS011;18014;49.228;11.102;2022-12-11T04:49:08;28.10;;;18.63;;
31382;SDS011;18014;49.228;11.102;2022-12-11T04:51:10;28.23;;;18.60;;
31382;SDS011;18014;49.228;11.102;2022-12-11T04:53:11;30.17;;;20.02;;
31382;SDS011;18014;49.228;11.102;2022-12-11T04:55:12;25.30;;;17.02;;
31382;SDS011;18014;49.228;11.102;2022-12-11T04:57:13;29.00;;;18.58;;
31382;SDS011;18014;49.228;11.102;2022-12-11T04:59:15;30.13;;;20.17;;
31382;SDS011;18014;49.228;11.102;2022-12-11T05:01:18;31.08;;;20.33;;
31382;SDS011;18014;49.228;11.102;2022-12-11T05:03:20;30.50;;;19.55;;
31382;SDS011;18014;49.228;11.102;2022-12-11T05:05:21;31.40;;;20.13;;
31382;SDS011;18014;49.228;11.102;2022-12-11T05:07:22;32.90;;;20.20;;
31382;SDS011;18014;49.228;11.102;2022-12-11T05:09:23;30.00;;;19.00;;
31382;SDS011;18014;49.228;11.102;2022-12-11T05:11:25;29.25;;;19.05;;
31382;SDS011;18014;49.228;11.102;2022-12-11T05:13:26;32.53;;;20.50;;
31382;SDS011;18014;49.228;11.102;2022-12-11T05:15:28;30.17;;;18.40;;
31382;SDS011;18014;49.228;11.102;2022-12-11T05:17:29;34.63;;;20.55;;
31382;SDS011;18014;49.228;11.102;2022-12-11T05:19:30;29.48;;;18.63;;
31382;SDS011;18014;49.228;11.102;2022-12-11T05:21:31;33.50;;;19.55;;
31382;SDS011;18014;49.228;11.102;2022-12-11T05:23:32;31.45;;;19.48;;
31382;SDS011;18014;49.228;11.102;2022-12-11T05:25:33;28.73;;;18.75;;
31382;SDS011;18014;49.228;11.102;2022-12-11T05:27:34;30.73;;;19.23;;
31382;SDS011;18014;49.228;11.102;2022-12-11T05:29:35;29.73;;;19.02;;
31382;SDS011;18014;49.228;11.102;2022-12-11T05:31:36;33.95;;;19.70;;
31382;SDS011;18014;49.228;11.102;2022-12-11T05:33:37;32.00;;;19.52;;
31382;SDS011;18014;49.228;11.102;2022-12-11T05:35:38;29.02;;;18.52;;
31382;SDS011;18014;49.228;11.102;2022-12-11T05:37:46;30.13;;;18.83;;
31382;SDS011;18014;49.228;11.102;2022-12-11T05:39:47;33.22;;;20.23;;
31382;SDS011;18014;49.228;11.102;2022-12-11T05:41:48;30.80;;;19.45;;
31382;SDS011;18014;49.228;11.102;2022-12-11T05:43:49;30.35;;;18.60;;
31382;SDS011;18014;49.228;11.102;2022-12-11T05:45:51;30.20;;;19.70;;
31382;SDS011;18014;49.228;11.102;2022-12-11T05:47:52;31.05;;;19.63;;
31382;SDS011;18014;49.228;11.102;2022-12-11T05:49:53;33.08;;;19.60;;
31382;SDS011;18014;49.228;11.102;2022-12-11T05:51:54;28.60;;;18.70;;
31382;SDS011;18014;49.228;11.102;2022-12-11T05:53:55;31.70;;;19.13;;
31382;SDS011;18014;49.228;11.102;2022-12-11T05:56:00;31.25;;;18.92;;
31382;SDS011;18014;49.228;11.102;2022-12-11T05:58:05;26.17;;;17.08;;
31382;SDS011;18014;49.228;11.102;2022-12-11T06:00:06;26.95;;;17.17;;
31382;SDS011;18014;49.228;11.102;2022-12-11T06:02:08;27.40;;;16.45;;
31382;SDS011;18014;49.228;11.102;2022-12-11T06:04:10;30.80;;;18.67;;
31382;SDS011;18014;49.228;11.102;2022-12-11T06:06:11;29.48;;;17.98;;
31382;SDS011;18014;49.228;11.102;2022-12-11T06:08:12;28.63;;;17.85;;
31382;SDS011;18014;49.228;11.102;2022-12-11T06:10:14;27.75;;;17.48;;
31382;SDS011;18014;49.228;11.102;2022-12-11T06:12:15;27.75;;;17.85;;
31382;SDS011;18014;49.228;11.102;2022-12-11T06:14:16;28.77;;;17.90;;
31382;SDS011;18014;49.228;11.102;2022-12-11T06:16:17;28.75;;;17.45;;
31382;SDS011;18014;49.228;11.102;2022-12-11T06:18:18;28.63;;;16.67;;
31382;SDS011;18014;49.228;11.102;2022-12-11T06:20:20;27.33;;;17.27;;
31382;SDS011;18014;49.228;11.102;2022-12-11T06:22:21;28.45;;;18.02;;
31382;SDS011;18014;49.228;11.102;2022-12-11T06:24:22;29.63;;;17.80;;
31382;SDS011;18014;49.228;11.102;2022-12-11T06:26:23;31.73;;;18.27;;
31382;SDS011;18014;49.228;11.102;2022-12-11T06:28:25;30.53;;;18.47;;
31382;SDS011;18014;49.228;11.102;2022-12-11T06:30:25;31.77;;;18.77;;
31382;SDS011;18014;49.228;11.102;2022-12-11T06:32:26;29.35;;;19.48;;
31382;SDS011;18014;49.228;11.102;2022-12-11T06:34:27;30.00;;;19.25;;
31382;SDS011;18014;49.228;11.102;2022-12-11T06:36:28;27.98;;;17.08;;
31382;SDS011;18014;49.228;11.102;2022-12-11T06:38:30;32.72;;;19.80;;
31382;SDS011;18014;49.228;11.102;2022-12-11T06:40:31;28.48;;;18.00;;
31382;SDS011;18014;49.228;11.102;2022-12-11T06:42:32;27.10;;;17.27;;
31382;SDS011;18014;49.228;11.102;2022-12-11T06:44:33;28.90;;;17.60;;
31382;SDS011;18014;49.228;11.102;2022-12-11T06:46:34;27.48;;;16.95;;
31382;SDS011;18014;49.228;11.102;2022-12-11T06:48:35;28.33;;;18.83;;
31382;SDS011;18014;49.228;11.102;2022-12-11T06:50:37;28.65;;;16.55;;
31382;SDS011;18014;49.228;11.102;2022-12-11T06:52:38;29.52;;;18.23;;
31382;SDS011;18014;49.228;11.102;2022-12-11T06:54:39;32.00;;;18.17;;
31382;SDS011;18014;49.228;11.102;2022-12-11T06:56:40;28.95;;;17.90;;
31382;SDS011;18014;49.228;11.102;2022-12-11T06:58:41;25.35;;;15.80;;
31382;SDS011;18014;49.228;11.102;2022-12-11T07:00:43;24.63;;;15.77;;
31382;SDS011;18014;49.228;11.102;2022-12-11T07:02:44;25.48;;;15.52;;
31382;SDS011;18014;49.228;11.102;2022-12-11T07:04:45;27.45;;;16.70;;
31382;SDS011;18014;49.228;11.102;2022-12-11T07:06:46;24.77;;;15.93;;
31382;SDS011;18014;49.228;11.102;2022-12-11T07:08:48;24.40;;;14.93;;
31382;SDS011;18014;49.228;11.102;2022-12-11T07:10:49;27.23;;;16.52;;
31382;SDS011;18014;49.228;11.102;2022-12-11T07:12:51;25.85;;;15.32;;
31382;SDS011;18014;49.228;11.102;2022-12-11T07:14:53;24.92;;;15.68;;
31382;SDS011;18014;49.228;11.102;2022-12-11T07:16:54;26.08;;;15.73;;
31382;SDS011;18014;49.228;11.102;2022-12-11T07:18:55;26.58;;;16.10;;
31382;SDS011;18014;49.228;11.102;2022-12-11T07:20:57;23.15;;;14.75;;
31382;SDS011;18014;49.228;11.102;2022-12-11T07:22:59;28.23;;;17.75;;
31382;SDS011;18014;49.228;11.102;2022-12-11T07:25:00;29.63;;;16.63;;
31382;SDS011;18014;49.228;11.102;2022-12-11T07:27:01;28.75;;;17.60;;
31382;SDS011;18014;49.228;11.102;2022-12-11T07:29:03;27.80;;;16.02;;
31382;SDS011;18014;49.228;11.102;2022-12-11T07:31:08;27.27;;;15.90;;
31382;SDS011;18014;49.228;11.102;2022-12-11T07:33:28;27.08;;;16.27;;
31382;SDS011;18014;49.228;11.102;2022-12-11T07:35:29;24.08;;;14.90;;
31382;SDS011;18014;49.228;11.102;2022-12-11T07:37:30;25.42;;;15.13;;
31382;SDS011;18014;49.228;11.102;2022-12-11T07:39:31;28.25;;;17.73;;
31382;SDS011;18014;49.228;11.102;2022-12-11T07:41:32;30.42;;;19.45;;
31382;SDS011;18014;49.228;11.102;2022-12-11T07:43:33;35.63;;;22.33;;
31382;SDS011;18014;49.228;11.102;2022-12-11T07:45:34;33.97;;;21.30;;
31382;SDS011;18014;49.228;11.102;2022-12-11T07:47:35;33.88;;;20.75;;
31382;SDS011;18014;49.228;11.102;2022-12-11T07:49:36;27.48;;;16.70;;
31382;SDS011;18014;49.228;11.102;2022-12-11T07:51:37;29.65;;;16.67;;
31382;SDS011;18014;49.228;11.102;2022-12-11T07:53:38;22.92;;;14.80;;
31382;SDS011;18014;49.228;11.102;2022-12-11T07:55:40;23.27;;;15.13;;
31382;SDS011;18014;49.228;11.102;2022-12-11T07:57:41;25.55;;;16.40;;
31382;SDS011;18014;49.228;11.102;2022-12-11T07:59:42;24.17;;;15.93;;
31382;SDS011;18014;49.228;11.102;2022-12-11T08:01:43;21.92;;;14.35;;
31382;SDS011;18014;49.228;11.102;2022-12-11T08:03:44;23.15;;;15.13;;
31382;SDS011;18014;49.228;11.102;2022-12-11T08:05:48;21.67;;;14.30;;
31382;SDS011;18014;49.228;11.102;2022-12-11T08:07:50;25.65;;;16.92;;
31382;SDS011;18014;49.228;11.102;2022-12-11T08:09:51;23.58;;;15.50;;
31382;SDS011;18014;49.228;11.102;2022-12-11T08:11:52;20.85;;;14.52;;
31382;SDS011;18014;49.228;11.102;2022-12-11T08:13:53;23.48;;;15.45;;
31382;SDS011;18014;49.228;11.102;2022-12-11T08:15:55;22.83;;;15.43;;
31382;SDS011;18014;49.228;11.102;2022-12-11T08:17:56;23.85;;;16.80;;
31382;SDS011;18014;49.228;11.102;2022-12-11T08:19:57;22.25;;;16.30;;
31382;SDS011;18014;49.228;11.102;2022-12-11T08:21:58;21.90;;;16.75;;
31382;SDS011;18014;49.228;11.102;2022-12-11T08:23:58;23.05;;;16.75;;
31382;SDS011;18014;49.228;11.102;2022-12-11T08:26:06;22.63;;;16.45;;
31382;SDS011;18014;49.228;11.102;2022-12-11T08:28:09;22.17;;;15.95;;
31382;SDS011;18014;49.228;11.102;2022-12-11T08:30:10;18.15;;;14.65;;
31382;SDS011;18014;49.228;11.102;2022-12-11T08:32:11;19.55;;;15.80;;
31382;SDS011;18014;49.228;11.102;2022-12-11T08:34:15;21.45;;;16.33;;
31382;SDS011;18014;49.228;11.102;2022-12-11T08:36:18;19.50;;;14.68;;
31382;SDS011;18014;49.228;11.102;2022-12-11T08:38:20;22.02;;;17.15;;
31382;SDS011;18014;49.228;11.102;2022-12-11T08:40:21;24.13;;;17.38;;
31382;SDS011;18014;49.228;11.102;2022-12-11T08:42:22;19.83;;;14.70;;
31382;SDS011;18014;49.228;11.102;2022-12-11T08:44:23;19.83;;;15.10;;
31382;SDS011;18014;49.228;11.102;2022-12-11T08:46:28;20.63;;;15.25;;
31382;SDS011;18014;49.228;11.102;2022-12-11T08:48:30;19.50;;;15.52;;
31382;SDS011;18014;49.228;11.102;2022-12-11T08:50:32;19.20;;;14.97;;
31382;SDS011;18014;49.228;11.102;2022-12-11T08:52:33;17.63;;;13.63;;
31382;SDS011;18014;49.228;11.102;2022-12-11T08:54:38;17.58;;;14.30;;
31382;SDS011;18014;49.228;11.102;2022-12-11T08:56:39;18.60;;;14.70;;
31382;SDS011;18014;49.228;11.102;2022-12-11T08:58:40;19.67;;;16.55;;
31382;SDS011;18014;49.228;11.102;2022-12-11T09:00:41;24.42;;;17.35;;
31382;SDS011;18014;49.228;11.102;2022-12-11T09:02:42;19.30;;;15.57;;
31382;SDS011;18014;49.228;11.102;2022-12-11T09:04:43;19.00;;;15.15;;
31382;SDS011;18014;49.228;11.102;2022-12-11T09:06:44;22.30;;;17.05;;
31382;SDS011;18014;49.228;11.102;2022-12-11T09:08:46;26.30;;;20.67;;
31382;SDS011;18014;49.228;11.102;2022-12-11T09:10:49;22.65;;;16.50;;
31382;SDS011;18014;49.228;11.102;2022-12-11T09:12:49;22.15;;;16.75;;
31382;SDS011;18014;49.228;11.102;2022-12-11T09:14:50;22.48;;;17.08;;
31382;SDS011;18014;49.228;11.102;2022-12-11T09:16:51;27.13;;;18.08;;
31382;SDS011;18014;49.228;11.102;2022-12-11T09:18:53;20.75;;;16.05;;
31382;SDS011;18014;49.228;11.102;2022-12-11T09:21:04;23.13;;;16.42;;
31382;SDS011;18014;49.228;11.102;2022-12-11T09:23:10;19.45;;;14.18;;
31382;SDS011;18014;49.228;11.102;2022-12-11T09:25:11;17.05;;;13.15;;
31382;SDS011;18014;49.228;11.102;2022-12-11T09:27:12;27.27;;;16.70;;
31382;SDS011;18014;49.228;11.102;2022-12-11T09:29:13;32.05;;;19.17;;
31382;SDS011;18014;49.228;11.102;2022-12-11T09:31:15;28.95;;;16.55;;
31382;SDS011;18014;49.228;11.102;2022-12-11T09:33:18;18.40;;;12.77;;
31382;SDS011;18014;49.228;11.102;2022-12-11T09:35:19;32.97;;;18.77;;
31382;SDS011;18014;49.228;11.102;2022-12-11T09:37:20;18.00;;;12.63;;
31382;SDS011;18014;49.228;11.102;2022-12-11T09:39:21;39.40;;;20.58;;
31382;SDS011;18014;49.228;11.102;2022-12-11T09:45:41;14.98;;;10.73;;
31382;SDS011;18014;49.228;11.102;2022-12-11T09:47:46;11.77;;;8.68;;
31382;SDS011;18014;49.228;11.102;2022-12-11T09:49:53;15.00;;;10.00;;
31382;SDS011;18014;49.228;11.102;2022-12-11T09:52:12;13.40;;;9.65;;
31382;SDS011;18014;49.228;11.102;2022-12-11T09:54:19;12.45;;;8.93;;
31382;SDS011;18014;49.228;11.102;2022-12-11T10:00:35;35.10;;;18.20;;
31382;SDS011;18014;49.228;11.102;2022-12-11T10:02:49;21.15;;;12.82;;
31382;SDS011;18014;49.228;11.102;2022-12-11T10:09:55;23.48;;;14.30;;
31382;SDS011;18014;49.228;11.102;2022-12-11T10:12:32;18.08;;;11.07;;
31382;SDS011;18014;49.228;11.102;2022-12-11T10:16:49;21.15;;;12.65;;
31382;SDS011;18014;49.228;11.102;2022-12-11T10:18:54;21.88;;;13.27;;
31382;SDS011;18014;49.228;11.102;2022-12-11T10:20:57;20.27;;;12.13;;
31382;SDS011;18014;49.228;11.102;2022-12-11T10:23:01;18.15;;;12.18;;
31382;SDS011;18014;49.228;11.102;2022-12-11T10:25:05;23.75;;;14.13;;
31382;SDS011;18014;49.228;11.102;2022-12-11T10:27:16;25.27;;;14.57;;
31382;SDS011;18014;49.228;11.102;2022-12-11T10:29:20;42.75;;;21.85;;
31382;SDS011;18014;49.228;11.102;2022-12-11T10:33:58;32.55;;;17.27;;
31382;SDS011;18014;49.228;11.102;2022-12-11T10:36:01;39.30;;;17.58;;
31382;SDS011;18014;49.228;11.102;2022-12-11T10:38:09;27.58;;;15.02;;
31382;SDS011;18014;49.228;11.102;2022-12-11T10:40:13;22.95;;;14.45;;
31382;SDS011;18014;49.228;11.102;2022-12-11T10:42:16;20.25;;;12.88;;
31382;SDS011;18014;49.228;11.102;2022-12-11T10:44:20;22.63;;;15.02;;
31382;SDS011;18014;49.228;11.102;2022-12-11T10:46:24;39.03;;;19.52;;
31382;SDS011;18014;49.228;11.102;2022-12-11T10:48:27;57.42;;;24.90;;
31382;SDS011;18014;49.228;11.102;2022-12-11T10:50:28;57.47;;;25.85;;
31382;SDS011;18014;49.228;11.102;2022-12-11T10:52:34;28.23;;;13.85;;
31382;SDS011;18014;49.228;11.102;2022-12-11T10:54:43;67.88;;;26.00;;
31382;SDS011;18014;49.228;11.102;2022-12-11T10:56:48;76.63;;;30.40;;
31382;SDS011;18014;49.228;11.102;2022-12-11T10:58:50;63.50;;;25.92;;
31382;SDS011;18014;49.228;11.102;2022-12-11T11:00:59;42.38;;;19.58;;
31382;SDS011;18014;49.228;11.102;2022-12-11T11:03:04;23.83;;;13.45;;
31382;SDS011;18014;49.228;11.102;2022-12-11T11:05:30;26.65;;;14.80;;
31382;SDS011;18014;49.228;11.102;2022-12-11T11:07:33;18.13;;;11.70;;
31382;SDS011;18014;49.228;11.102;2022-12-11T11:09:34;17.42;;;10.80;;
31382;SDS011;18014;49.228;11.102;2022-12-11T11:11:36;42.30;;;22.10;;
31382;SDS011;18014;49.228;11.102;2022-12-11T11:13:38;29.90;;;18.75;;
31382;SDS011;18014;49.228;11.102;2022-12-11T11:15:39;51.53;;;26.02;;
31382;SDS011;18014;49.228;11.102;2022-12-11T11:17:41;66.78;;;35.03;;
31382;SDS011;18014;49.228;11.102;2022-12-11T11:19:46;41.45;;;21.63;;
31382;SDS011;18014;49.228;11.102;2022-12-11T11:21:48;98.20;;;45.83;;
31382;SDS011;18014;49.228;11.102;2022-12-11T11:23:55;83.53;;;40.22;;
31382;SDS011;18014;49.228;11.102;2022-12-11T11:25:57;72.50;;;37.03;;
31382;SDS011;18014;49.228;11.102;2022-12-11T11:28:06;44.13;;;23.33;;
31382;SDS011;18014;49.228;11.102;2022-12-11T11:30:19;34.53;;;19.25;;
31382;SDS011;18014;49.228;11.102;2022-12-11T11:32:25;82.82;;;36.45;;
31382;SDS011;18014;49.228;11.102;2022-12-11T11:34:33;106.30;;;47.58;;
31382;SDS011;18014;49.228;11.102;2022-12-11T11:36:34;96.47;;;49.42;;
31382;SDS011;18014;49.228;11.102;2022-12-11T11:38:37;86.43;;;45.05;;
31382;SDS011;18014;49.228;11.102;2022-12-11T11:43:15;67.22;;;38.40;;
31382;SDS011;18014;49.228;11.102;2022-12-11T11:45:21;45.53;;;27.60;;
31382;SDS011;18014;49.228;11.102;2022-12-11T11:47:26;23.80;;;15.57;;
31382;SDS011;18014;49.228;11.102;2022-12-11T11:51:48;19.33;;;13.52;;
31382;SDS011;18014;49.228;11.102;2022-12-11T11:54:06;23.13;;;15.93;;
31382;SDS011;18014;49.228;11.102;2022-12-11T11:56:25;20.50;;;13.80;;
31382;SDS011;18014;49.228;11.102;2022-12-11T11:58:38;35.53;;;22.67;;
31382;SDS011;18014;49.228;11.102;2022-12-11T12:00:53;31.15;;;19.85;;
31382;SDS011;18014;49.228;11.102;2022-12-11T12:03:11;25.70;;;15.75;;
31382;SDS011;18014;49.228;11.102;2022-12-11T12:05:19;32.08;;;18.70;;
31382;SDS011;18014;49.228;11.102;2022-12-11T12:14:37;25.50;;;14.13;;
31382;SDS011;18014;49.228;11.102;2022-12-11T12:17:31;23.67;;;16.20;;
31382;SDS011;18014;49.228;11.102;2022-12-11T12:21:42;21.88;;;13.77;;
31382;SDS011;18014;49.228;11.102;2022-12-11T12:26:09;31.65;;;19.08;;
31382;SDS011;18014;49.228;11.102;2022-12-11T12:28:19;31.40;;;17.83;;
31382;SDS011;18014;49.228;11.102;2022-12-11T12:30:34;23.85;;;15.68;;
31382;SDS011;18014;49.228;11.102;2022-12-11T12:32:56;36.25;;;24.65;;
31382;SDS011;18014;49.228;11.102;2022-12-11T12:44:41;23.15;;;14.70;;
31382;SDS011;18014;49.228;11.102;2022-12-11T12:47:10;21.17;;;14.15;;
31382;SDS011;18014;49.228;11.102;2022-12-11T12:49:23;22.17;;;15.15;;
31382;SDS011;18014;49.228;11.102;2022-12-11T12:51:31;28.88;;;19.00;;
31382;SDS011;18014;49.228;11.102;2022-12-11T12:53:33;26.27;;;17.90;;
31382;SDS011;18014;49.228;11.102;2022-12-11T12:57:36;43.97;;;26.17;;
31382;SDS011;18014;49.228;11.102;2022-12-11T12:59:52;35.58;;;23.52;;
31382;SDS011;18014;49.228;11.102;2022-12-11T13:01:55;33.00;;;20.67;;
31382;SDS011;18014;49.228;11.102;2022-12-11T13:04:02;32.92;;;21.10;;